Chaplin, CT (06235)

2:45 PM EDT on September 03, 2015 (GMT -0400)
KCTEASTF2 | | Change Station
CLOSE
Current Station
Personal Weather Station
Location: Eastford, CT
Elevation: 500 ft
Nearby Weather Stations

Elev 500 ft 41.84 °N, 72.10 °W | Updated 25 seconds ago

Partly Cloudy
Partly Cloudy
90.1 °F
Feels Like 95 °F
N
1.0
Wind Variable Wind from North
Gusts 1.0 mph

Today
High -- | Low -- °F
--% Chance of Precip.
Yesterday
High -- | Low -- °F
Precip. -- in
6:16 AM 7:19 PM
Waning Gibbous, 68% visible
Pressure 29.83 in
Visibility 8.0 miles
Clouds Mostly Cloudy 4600 ft
Mostly Cloudy 5500 ft
Heat Index 95 °F
Dew Point 70 °F
Humidity 51%
Rainfall 0.00 in
Snow Depth Not available.
UV 4 out of 12
Pollen 8.30 out of 12
Air Quality Not available.
Flu Activity Not available.
METAR KIJD 031752Z AUTO VRB05KT 8SM BKN046 BKN055 31/19 A2984 RMK AO2 SLP102 T03110189 10322 20183 56014
Pressure 29.83 in
Visibility 8.0 miles
Clouds Mostly Cloudy 4600 ft
Mostly Cloudy 5500 ft
Heat Index 95 °F
Dew Point 70 °F
Humidity 51%
Rainfall 0.00 in
Snow Depth Not available.
UV 4 out of 12
Pollen 8.30 out of 12
Air Quality Not available.
Flu Activity Not available.
METAR KIJD 031752Z AUTO VRB05KT 8SM BKN046 BKN055 31/19 A2984 RMK AO2 SLP102 T03110189 10322 20183 56014

10-Day Weather Forecast

×

Almanac

Astronomy

Sep. 03, 2015 Rise Set
Actual Time
Civil Twilight
Nautical Twilight
Astronomical Twilight
Moon
Length of Visible Light
Length of Day
Tomorrow will be .
, % of the Moon is Illuminated

Today's Extremes

State Highs State Lows

Community

WunderPhotos

Upload Photos

1,852,001 photos uploaded!

WunderBlogs® & News

Nearby

Air Quality

  Air Quality AQ Index Pollutant
Not available.

Snow Depth

Station Depth Elevation

Earthquake Activity

City Distance Mag. Time & Date
Minimum magnitude displayed is 2.5.

Coastal Water Temperatures

Place Temperature

Stations

Nearby Weather Stations

Station Location Temp. Windchill Dew Point Humidity Wind Precip. Elev Updated Type